Seattle Express — A8GU5 — position and weather

sailwx.info

Track history (hours):
 
Tides and Currents Weather Stations Pressure Air Temp Water Temp Dewpoint Dewpoint Depression Visibility Wind Speed Wind Dir Waves Ship Positions

Seattle Express

Last reported at 2014-Sep-20 15:32 UTC. Time now 2014-Sep-20 16:01 UTC.
Position N 51°47' E 002°25'.

Length 264.1 m; beam 32.3 m; draft 12.5 m.

Type: Ship (hazmat cat A). MMSI: 636090860.

Date/timePositionNaut miles runAvg speedWind from/ knotsBaromVisibWave heightAir tempDewpointWater temp
2014-Sep-20 15:32N 51°47' E 002°25'11 8.9
2014-Sep-20 14:20N 51°55' E 002°36'10 8.2
2014-Sep-20 13:03N 52°02' E 002°48'14 8.1
2014-Sep-20 11:18N 52°03' E 003°12'6 8.0
2014-Sep-20 10:33N 52°03' E 003°21'9 9.2
2014-Sep-20 09:33N 52°03' E 003°36'1111.4
2014-Sep-20 08:33N 52°03' E 003°55'8 8.4
2014-Sep-20 07:33N 51°58' E 004°05'1 0.8
2014-Sep-20 06:33N 51°58' E 004°04'0 0.0
2014-Sep-20 05:33N 51°58' E 004°04'0 0.0
2014-Sep-20 04:33N 51°58' E 004°04'0 0.0
2014-Sep-20 03:33N 51°58' E 004°04'0 0.0
2014-Sep-20 02:33N 51°58' E 004°04'0 0.0
2014-Sep-20 01:33N 51°58' E 004°04'0 0.0
2014-Sep-20 00:33N 51°58' E 004°04'0 0.0
2014-Sep-19 23:33N 51°58' E 004°04'0 0.0
2014-Sep-19 22:30N 51°58' E 004°04'0 0.0
2014-Sep-19 21:33N 51°58' E 004°04'0 0.0
2014-Sep-19 20:33N 51°58' E 004°04'2 1.6
2014-Sep-19 19:33N 51°59' E 004°03'8 8.0
2014-Sep-19 18:33N 51°60' E 003°50'7 6.8
2014-Sep-19 17:33N 52°06' E 003°46'1110.7
2014-Sep-19 16:33N 52°17' E 003°47'1312.6
2014-Sep-19 15:33N 52°29' E 003°51'1212.0
2014-Sep-19 14:33N 52°41' E 003°55'1111.4
2014-Sep-19 13:33N 52°52' E 003°59'1010.4
2014-Sep-19 12:33N 53°01' E 004°07'1111.2
2014-Sep-19 11:33N 53°09' E 004°21'1311.5
2014-Sep-19 10:24N 53°21' E 004°30'1011.6
2014-Sep-19 09:33N 53°29' E 004°39'1312.9
2014-Sep-19 08:33N 53°34' E 004°59'1212.5
2014-Sep-19 07:33N 53°38' E 005°19'1212.0
2014-Sep-19 06:33N 53°42' E 005°38'1111.4
2014-Sep-19 05:33N 53°45' E 005°57'1111.0
2014-Sep-19 04:33N 53°48' E 006°14'1110.8
2014-Sep-19 03:33N 53°51' E 006°32'3511.7
2014-Sep-19 00:32N 53°59' E 007°30'1010.3
2014-Sep-18 23:33N 53°54' E 007°45'1514.6
2014-Sep-18 22:33N 53°48' E 008°08'1818.1
2014-Sep-18 21:33N 53°36' E 008°30'2 2.1
2014-Sep-18 20:33N 53°34' E 008°32'0 0.0
2014-Sep-18 19:31N 53°34' E 008°32'0 0.0
2014-Sep-18 18:31N 53°34' E 008°32'0 0.0
2014-Sep-18 17:31N 53°34' E 008°32'0 0.0
2014-Sep-18 16:34N 53°34' E 008°32'0 0.0
2014-Sep-18 15:33N 53°34' E 008°32'0 0.0
2014-Sep-18 14:33N 53°34' E 008°32'0 0.0
2014-Sep-18 13:33N 53°34' E 008°32'0 0.0
2014-Sep-18 12:33N 53°34' E 008°32'0 0.0
2014-Sep-18 11:33N 53°34' E 008°32'0 0.0
2014-Sep-18 10:33N 53°34' E 008°32'0 0.0
2014-Sep-18 09:33N 53°34' E 008°32'0 0.0
2014-Sep-18 08:33N 53°34' E 008°32'0 0.0
2014-Sep-18 07:30N 53°34' E 008°32'0 0.0
2014-Sep-18 06:33N 53°34' E 008°32'5 5.2
2014-Sep-18 05:33N 53°38' E 008°26'1817.5
2014-Sep-18 04:33N 53°50' E 008°04'1613.7
2014-Sep-18 03:24N 53°54' E 007°38'1012.2
2014-Sep-18 02:32N 53°53' E 007°20'1414.3
2014-Sep-18 01:33N 53°50' E 006°57'2018.3
2014-Sep-18 00:27N 53°45' E 006°24'1618.1
2014-Sep-17 23:33N 53°40' E 005°58'1817.9
2014-Sep-17 22:33N 53°35' E 005°29'1817.7
2014-Sep-17 21:33N 53°30' E 005°00'1717.1
2014-Sep-17 20:33N 53°19' E 004°38'1717.4
2014-Sep-17 19:33N 53°04' E 004°24'1818.1
2014-Sep-17 18:33N 52°48' E 004°09'1918.3
2014-Sep-17 17:31N 52°34' E 003°49'1818.0
2014-Sep-17 16:33N 52°21' E 003°30'1817.7
2014-Sep-17 15:33N 52°03' E 003°25'1717.4
2014-Sep-17 14:33N 51°47' E 003°15'1313.1
2014-Sep-17 13:33N 51°34' E 003°09'1010.3
2014-Sep-17 12:34N 51°24' E 003°07'1818.1
2014-Sep-17 11:33N 51°26' E 003°36'1212.3
2014-Sep-17 10:33N 51°22' E 003°54'1111.2
2014-Sep-17 09:33N 51°24' E 004°12'5 4.5
2014-Sep-17 08:33N 51°21' E 004°17'1 0.8
2014-Sep-17 07:33N 51°20' E 004°18'2 1.6
2014-Sep-17 06:34N 51°20' E 004°21'0 0.0
2014-Sep-17 05:24N 51°20' E 004°21'0 0.0
2014-Sep-17 04:33N 51°20' E 004°21'0 0.0
2014-Sep-17 03:32N 51°20' E 004°21'0 0.0
2014-Sep-17 02:29N 51°20' E 004°21'0 0.0
2014-Sep-17 01:23N 51°20' E 004°21'0 0.0
2014-Sep-17 00:29N 51°20' E 004°21'0 0.0
2014-Sep-16 23:32N 51°20' E 004°21'0 0.0
2014-Sep-16 22:32N 51°20' E 004°21'0 0.0
2014-Sep-16 21:32N 51°20' E 004°21'0 0.0
2014-Sep-16 20:20N 51°20' E 004°21'0 0.0
2014-Sep-16 19:23N 51°20' E 004°21'0 0.0
2014-Sep-16 18:32N 51°20' E 004°21'0 0.0
2014-Sep-16 17:32N 51°20' E 004°21'0 0.0
2014-Sep-16 16:32N 51°20' E 004°21'0 0.0
2014-Sep-16 14:20N 51°20' E 004°21'0 0.0
2014-Sep-16 13:32N 51°20' E 004°21'0 0.0
2014-Sep-16 12:20N 51°20' E 004°21'0 0.0
2014-Sep-16 11:32N 51°20' E 004°21'0 0.0
2014-Sep-16 10:32N 51°20' E 004°21'0 0.0
2014-Sep-16 09:17N 51°20' E 004°21'0 0.0
2014-Sep-16 08:08N 51°20' E 004°21'0 0.0
2014-Sep-16 07:29N 51°20' E 004°21'0 0.0
2014-Sep-16 06:32N 51°20' E 004°21'0 0.0
2014-Sep-16 05:26N 51°20' E 004°21'0 0.0
2014-Sep-16 04:26N 51°20' E 004°21'0 0.0
2014-Sep-16 03:29N 51°20' E 004°21'0 0.0
2014-Sep-16 02:29N 51°20' E 004°21'0 0.0
2014-Sep-16 01:32N 51°20' E 004°21'0 0.0
2014-Sep-16 00:17N 51°20' E 004°21'0 0.0
2014-Sep-15 23:32N 51°20' E 004°21'0 0.0
2014-Sep-15 22:32N 51°20' E 004°21'0 0.0
2014-Sep-15 21:17N 51°20' E 004°21'0 0.0
2014-Sep-15 20:32N 51°20' E 004°21'0 0.0
2014-Sep-15 19:33N 51°20' E 004°20'2 2.3
2014-Sep-15 18:33N 51°21' E 004°17'0 0.2
2014-Sep-15 17:33N 51°21' E 004°17'3 2.9
2014-Sep-15 16:33N 51°22' E 004°13'7 7.0
2014-Sep-15 15:33N 51°24' E 004°02'9 8.9
2014-Sep-15 14:34N 51°21' E 003°49'1010.0
2014-Sep-15 13:34N 51°26' E 003°35'1111.3
2014-Sep-15 12:33N 51°24' E 003°17'1413.7
2014-Sep-15 11:33N 51°22' E 002°55'1414.3
2014-Sep-15 10:33N 51°22' E 002°32'1716.6
2014-Sep-15 09:31N 51°15' E 002°07'1616.3
2014-Sep-15 08:33N 51°07' E 001°45'1816.8
2014-Sep-15 07:30N 50°53' E 001°28'3317.0
2014-Sep-15 05:33N 50°29' E 000°51'1818.0
2014-Sep-15 04:34N 50°24' E 000°24'  
Track history (hours):
 
Tides and Currents Weather Stations Pressure Air Temp Water Temp Dewpoint Dewpoint Depression Visibility Wind Speed Wind Dir Waves Ship Positions

Seattle Express

Last reported at 2014-Sep-20 15:32 UTC. Time now 2014-Sep-20 16:01 UTC.
Position N 51°47' E 002°25'.

Length 264.1 m; beam 32.3 m; draft 12.5 m.

Type: Ship (hazmat cat A). MMSI: 636090860.

Date/timePositionNaut miles runAvg speedWind from/ knotsBaromVisibWave heightAir tempDewpointWater temp
2014-Sep-20 15:32N 51°47' E 002°25'11 8.9
2014-Sep-20 14:20N 51°55' E 002°36'10 8.2
2014-Sep-20 13:03N 52°02' E 002°48'14 8.1
2014-Sep-20 11:18N 52°03' E 003°12'6 8.0
2014-Sep-20 10:33N 52°03' E 003°21'9 9.2
2014-Sep-20 09:33N 52°03' E 003°36'1111.4
2014-Sep-20 08:33N 52°03' E 003°55'8 8.4
2014-Sep-20 07:33N 51°58' E 004°05'1 0.8
2014-Sep-20 06:33N 51°58' E 004°04'0 0.0
2014-Sep-20 05:33N 51°58' E 004°04'0 0.0
2014-Sep-20 04:33N 51°58' E 004°04'0 0.0
2014-Sep-20 03:33N 51°58' E 004°04'0 0.0
2014-Sep-20 02:33N 51°58' E 004°04'0 0.0
2014-Sep-20 01:33N 51°58' E 004°04'0 0.0
2014-Sep-20 00:33N 51°58' E 004°04'0 0.0
2014-Sep-19 23:33N 51°58' E 004°04'0 0.0
2014-Sep-19 22:30N 51°58' E 004°04'0 0.0
2014-Sep-19 21:33N 51°58' E 004°04'0 0.0
2014-Sep-19 20:33N 51°58' E 004°04'2 1.6
2014-Sep-19 19:33N 51°59' E 004°03'8 8.0
2014-Sep-19 18:33N 51°60' E 003°50'7 6.8
2014-Sep-19 17:33N 52°06' E 003°46'1110.7
2014-Sep-19 16:33N 52°17' E 003°47'1312.6
2014-Sep-19 15:33N 52°29' E 003°51'1212.0
2014-Sep-19 14:33N 52°41' E 003°55'1111.4
2014-Sep-19 13:33N 52°52' E 003°59'1010.4
2014-Sep-19 12:33N 53°01' E 004°07'1111.2
2014-Sep-19 11:33N 53°09' E 004°21'1311.5
2014-Sep-19 10:24N 53°21' E 004°30'1011.6
2014-Sep-19 09:33N 53°29' E 004°39'1312.9
2014-Sep-19 08:33N 53°34' E 004°59'1212.5
2014-Sep-19 07:33N 53°38' E 005°19'1212.0
2014-Sep-19 06:33N 53°42' E 005°38'1111.4
2014-Sep-19 05:33N 53°45' E 005°57'1111.0
2014-Sep-19 04:33N 53°48' E 006°14'1110.8
2014-Sep-19 03:33N 53°51' E 006°32'3511.7
2014-Sep-19 00:32N 53°59' E 007°30'1010.3
2014-Sep-18 23:33N 53°54' E 007°45'1514.6
2014-Sep-18 22:33N 53°48' E 008°08'1818.1
2014-Sep-18 21:33N 53°36' E 008°30'2 2.1
2014-Sep-18 20:33N 53°34' E 008°32'0 0.0
2014-Sep-18 19:31N 53°34' E 008°32'0 0.0
2014-Sep-18 18:31N 53°34' E 008°32'0 0.0
2014-Sep-18 17:31N 53°34' E 008°32'0 0.0
2014-Sep-18 16:34N 53°34' E 008°32'0 0.0
2014-Sep-18 15:33N 53°34' E 008°32'0 0.0
2014-Sep-18 14:33N 53°34' E 008°32'0 0.0
2014-Sep-18 13:33N 53°34' E 008°32'0 0.0
2014-Sep-18 12:33N 53°34' E 008°32'0 0.0
2014-Sep-18 11:33N 53°34' E 008°32'0 0.0
2014-Sep-18 10:33N 53°34' E 008°32'0 0.0
2014-Sep-18 09:33N 53°34' E 008°32'0 0.0
2014-Sep-18 08:33N 53°34' E 008°32'0 0.0
2014-Sep-18 07:30N 53°34' E 008°32'0 0.0
2014-Sep-18 06:33N 53°34' E 008°32'5 5.2
2014-Sep-18 05:33N 53°38' E 008°26'1817.5
2014-Sep-18 04:33N 53°50' E 008°04'1613.7
2014-Sep-18 03:24N 53°54' E 007°38'1012.2
2014-Sep-18 02:32N 53°53' E 007°20'1414.3
2014-Sep-18 01:33N 53°50' E 006°57'2018.3
2014-Sep-18 00:27N 53°45' E 006°24'1618.1
2014-Sep-17 23:33N 53°40' E 005°58'1817.9
2014-Sep-17 22:33N 53°35' E 005°29'1817.7
2014-Sep-17 21:33N 53°30' E 005°00'1717.1
2014-Sep-17 20:33N 53°19' E 004°38'1717.4
2014-Sep-17 19:33N 53°04' E 004°24'1818.1
2014-Sep-17 18:33N 52°48' E 004°09'1918.3
2014-Sep-17 17:31N 52°34' E 003°49'1818.0
2014-Sep-17 16:33N 52°21' E 003°30'1817.7
2014-Sep-17 15:33N 52°03' E 003°25'1717.4
2014-Sep-17 14:33N 51°47' E 003°15'1313.1
2014-Sep-17 13:33N 51°34' E 003°09'1010.3
2014-Sep-17 12:34N 51°24' E 003°07'1818.1
2014-Sep-17 11:33N 51°26' E 003°36'1212.3
2014-Sep-17 10:33N 51°22' E 003°54'1111.2
2014-Sep-17 09:33N 51°24' E 004°12'5 4.5
2014-Sep-17 08:33N 51°21' E 004°17'1 0.8
2014-Sep-17 07:33N 51°20' E 004°18'2 1.6
2014-Sep-17 06:34N 51°20' E 004°21'0 0.0
2014-Sep-17 05:24N 51°20' E 004°21'0 0.0
2014-Sep-17 04:33N 51°20' E 004°21'0 0.0
2014-Sep-17 03:32N 51°20' E 004°21'0 0.0
2014-Sep-17 02:29N 51°20' E 004°21'0 0.0
2014-Sep-17 01:23N 51°20' E 004°21'0 0.0
2014-Sep-17 00:29N 51°20' E 004°21'0 0.0
2014-Sep-16 23:32N 51°20' E 004°21'0 0.0
2014-Sep-16 22:32N 51°20' E 004°21'0 0.0
2014-Sep-16 21:32N 51°20' E 004°21'0 0.0
2014-Sep-16 20:20N 51°20' E 004°21'0 0.0
2014-Sep-16 19:23N 51°20' E 004°21'0 0.0
2014-Sep-16 18:32N 51°20' E 004°21'0 0.0
2014-Sep-16 17:32N 51°20' E 004°21'0 0.0
2014-Sep-16 16:32N 51°20' E 004°21'0 0.0
2014-Sep-16 14:20N 51°20' E 004°21'0 0.0
2014-Sep-16 13:32N 51°20' E 004°21'0 0.0
2014-Sep-16 12:20N 51°20' E 004°21'0 0.0
2014-Sep-16 11:32N 51°20' E 004°21'0 0.0
2014-Sep-16 10:32N 51°20' E 004°21'0 0.0
2014-Sep-16 09:17N 51°20' E 004°21'0 0.0
2014-Sep-16 08:08N 51°20' E 004°21'0 0.0
2014-Sep-16 07:29N 51°20' E 004°21'0 0.0
2014-Sep-16 06:32N 51°20' E 004°21'0 0.0
2014-Sep-16 05:26N 51°20' E 004°21'0 0.0
2014-Sep-16 04:26N 51°20' E 004°21'0 0.0
2014-Sep-16 03:29N 51°20' E 004°21'0 0.0
2014-Sep-16 02:29N 51°20' E 004°21'0 0.0
2014-Sep-16 01:32N 51°20' E 004°21'0 0.0
2014-Sep-16 00:17N 51°20' E 004°21'0 0.0
2014-Sep-15 23:32N 51°20' E 004°21'0 0.0
2014-Sep-15 22:32N 51°20' E 004°21'0 0.0
2014-Sep-15 21:17N 51°20' E 004°21'0 0.0
2014-Sep-15 20:32N 51°20' E 004°21'0 0.0
2014-Sep-15 19:33N 51°20' E 004°20'2 2.3
2014-Sep-15 18:33N 51°21' E 004°17'0 0.2
2014-Sep-15 17:33N 51°21' E 004°17'3 2.9
2014-Sep-15 16:33N 51°22' E 004°13'7 7.0
2014-Sep-15 15:33N 51°24' E 004°02'9 8.9
2014-Sep-15 14:34N 51°21' E 003°49'1010.0
2014-Sep-15 13:34N 51°26' E 003°35'1111.3
2014-Sep-15 12:33N 51°24' E 003°17'1413.7
2014-Sep-15 11:33N 51°22' E 002°55'1414.3
2014-Sep-15 10:33N 51°22' E 002°32'1716.6
2014-Sep-15 09:31N 51°15' E 002°07'1616.3
2014-Sep-15 08:33N 51°07' E 001°45'1816.8
2014-Sep-15 07:30N 50°53' E 001°28'3317.0
2014-Sep-15 05:33N 50°29' E 000°51'1818.0
2014-Sep-15 04:34N 50°24' E 000°24'  

Dump ship's entire track history